Lausanne, Switzerland

12:11 PM CET on February 09, 2016 (GMT +0100)
Payerne Mil | | Change Station
CLOSE
Current Station
Airport
Location: Payerne,
Elevation: 1608 ft
Nearby Weather Stations

Elev 1608 ft 46.81 °N, 6.94 °E | Updated 21 minutes ago

Light Rain
Light Rain
48 °F
Feels Like 48 °F
N
15
Wind Variable Wind from SW

Today
High -- | Low -- °F
--% Chance of Precip.
Yesterday
High -- | Low -- °F
Precip. -- in
Pressure 29.56 in
Visibility 3.7 miles
Clouds Few 2800 ft
Mostly Cloudy 4700 ft
Dew Point 43 °F
Humidity 82%
Rainfall 0.00 in
Snow Depth Not available.
7:47 AM 5:48 PM
New Moon, 1% visible
METAR LSMP 091050Z 23013KT 6000 -RA FEW028 BKN047 09/06 Q1001 RMK BLU
Pressure 29.56 in
Visibility 3.7 miles
Clouds Few 2800 ft
Mostly Cloudy 4700 ft
Dew Point 43 °F
Humidity 82%
Rainfall 0.00 in
Snow Depth Not available.
7:47 AM 5:48 PM
New Moon, 1% visible
METAR LSMP 091050Z 23013KT 6000 -RA FEW028 BKN047 09/06 Q1001 RMK BLU

10-Day Weather Forecast

Almanac

Astronomy

Feb. 09, 2016 Rise Set
Actual Time
Civil Twilight
Nautical Twilight
Astronomical Twilight
Moon
Length of Visible Light
Length of Day
Tomorrow will be .
, % of the Moon is Illuminated

Today's Extremes

Country Highs Country Lows

Community

WunderPhotos

Upload Photos

1,891,565 photos uploaded!

WunderBlog® & News

Nearby

Air Quality

  Air Quality AQ Index Pollutant
Not available.

Snow Depth

Station Depth Elevation

Earthquake Activity

City Distance Mag. Time & Date
Minimum magnitude displayed is 2.5.

Coastal Water Temperatures

Place Temperature

Stations

Nearby Weather Stations

Station Location Temp. Windchill Dew Point Humidity Wind Precip. Elev Updated Type